sensor_id;sensor_type;location;lat;lon;timestamp;temperature;humidity
44647;DHT22;56315;-33.902;151.160;2022-09-21T00:03:40;23.00;99.90
44647;DHT22;56315;-33.902;151.160;2022-09-21T00:06:08;23.00;99.90
44647;DHT22;56315;-33.902;151.160;2022-09-21T00:08:35;23.20;99.90
44647;DHT22;56315;-33.902;151.160;2022-09-21T00:11:02;23.40;99.90
44647;DHT22;56315;-33.902;151.160;2022-09-21T00:13:31;23.80;99.90
44647;DHT22;56315;-33.902;151.160;2022-09-21T00:15:58;24.10;99.90
44647;DHT22;56315;-33.902;151.160;2022-09-21T00:18:25;24.70;99.90
44647;DHT22;56315;-33.902;151.160;2022-09-21T00:20:52;24.90;99.90
44647;DHT22;56315;-33.902;151.160;2022-09-21T00:23:19;24.70;99.90
44647;DHT22;56315;-33.902;151.160;2022-09-21T00:25:46;24.60;99.90
44647;DHT22;56315;-33.902;151.160;2022-09-21T00:28:13;24.30;99.90
44647;DHT22;56315;-33.902;151.160;2022-09-21T00:30:39;23.70;99.90
44647;DHT22;56315;-33.902;151.160;2022-09-21T00:33:06;23.10;99.90
44647;DHT22;56315;-33.902;151.160;2022-09-21T00:35:33;23.00;99.90
44647;DHT22;56315;-33.902;151.160;2022-09-21T00:38:00;23.00;99.90
44647;DHT22;56315;-33.902;151.160;2022-09-21T00:40:27;23.10;99.90
44647;DHT22;56315;-33.902;151.160;2022-09-21T00:43:09;23.10;99.90
44647;DHT22;56315;-33.902;151.160;2022-09-21T00:45:36;22.80;99.90
44647;DHT22;56315;-33.902;151.160;2022-09-21T00:48:03;22.90;99.90
44647;DHT22;56315;-33.902;151.160;2022-09-21T00:50:29;22.80;99.90
44647;DHT22;56315;-33.902;151.160;2022-09-21T00:52:56;22.80;99.90
44647;DHT22;56315;-33.902;151.160;2022-09-21T00:55:31;22.80;99.90
44647;DHT22;56315;-33.902;151.160;2022-09-21T00:58:00;23.00;99.90
44647;DHT22;56315;-33.902;151.160;2022-09-21T01:00:28;23.10;99.90
44647;DHT22;56315;-33.902;151.160;2022-09-21T01:02:55;23.00;99.90
44647;DHT22;56315;-33.902;151.160;2022-09-21T01:05:26;23.00;99.90
44647;DHT22;56315;-33.902;151.160;2022-09-21T01:07:53;23.00;99.90
44647;DHT22;56315;-33.902;151.160;2022-09-21T01:10:20;22.70;99.90
44647;DHT22;56315;-33.902;151.160;2022-09-21T01:26:36;22.20;99.90
44647;DHT22;56315;-33.902;151.160;2022-09-21T01:29:11;22.10;99.90
44647;DHT22;56315;-33.902;151.160;2022-09-21T01:31:41;22.10;99.90
44647;DHT22;56315;-33.902;151.160;2022-09-21T01:34:13;22.00;99.90
44647;DHT22;56315;-33.902;151.160;2022-09-21T01:36:40;22.00;99.90
44647;DHT22;56315;-33.902;151.160;2022-09-21T01:39:11;22.00;99.90
44647;DHT22;56315;-33.902;151.160;2022-09-21T01:41:39;22.00;99.90
44647;DHT22;56315;-33.902;151.160;2022-09-21T01:44:09;22.10;99.90
44647;DHT22;56315;-33.902;151.160;2022-09-21T01:46:38;22.20;99.90
44647;DHT22;56315;-33.902;151.160;2022-09-21T01:49:07;22.30;99.90
44647;DHT22;56315;-33.902;151.160;2022-09-21T01:51:36;22.20;99.90
44647;DHT22;56315;-33.902;151.160;2022-09-21T01:54:06;22.00;99.90
44647;DHT22;56315;-33.902;151.160;2022-09-21T01:56:37;21.90;99.90
44647;DHT22;56315;-33.902;151.160;2022-09-21T02:01:42;21.80;99.90
44647;DHT22;56315;-33.902;151.160;2022-09-21T02:04:11;21.70;99.90
44647;DHT22;56315;-33.902;151.160;2022-09-21T02:06:39;21.60;99.90
44647;DHT22;56315;-33.902;151.160;2022-09-21T02:09:06;21.40;99.90
44647;DHT22;56315;-33.902;151.160;2022-09-21T02:11:34;21.30;99.90
44647;DHT22;56315;-33.902;151.160;2022-09-21T02:14:07;21.20;99.90
44647;DHT22;56315;-33.902;151.160;2022-09-21T02:16:36;21.20;99.90
44647;DHT22;56315;-33.902;151.160;2022-09-21T02:24:32;21.60;99.90
44647;DHT22;56315;-33.902;151.160;2022-09-21T02:27:02;21.50;99.90
44647;DHT22;56315;-33.902;151.160;2022-09-21T02:32:08;21.70;99.90
44647;DHT22;56315;-33.902;151.160;2022-09-21T02:34:42;21.80;99.90
44647;DHT22;56315;-33.902;151.160;2022-09-21T02:44:35;22.10;99.90
44647;DHT22;56315;-33.902;151.160;2022-09-21T02:47:12;22.30;99.90
44647;DHT22;56315;-33.902;151.160;2022-09-21T02:49:41;22.40;99.90
44647;DHT22;56315;-33.902;151.160;2022-09-21T02:52:12;22.50;99.90
44647;DHT22;56315;-33.902;151.160;2022-09-21T02:54:40;22.60;99.90
44647;DHT22;56315;-33.902;151.160;2022-09-21T02:57:08;22.60;99.90
44647;DHT22;56315;-33.902;151.160;2022-09-21T02:59:38;22.50;99.90
44647;DHT22;56315;-33.902;151.160;2022-09-21T03:02:05;22.50;99.90
44647;DHT22;56315;-33.902;151.160;2022-09-21T03:04:32;22.50;99.90
44647;DHT22;56315;-33.902;151.160;2022-09-21T03:06:59;22.60;99.90
44647;DHT22;56315;-33.902;151.160;2022-09-21T03:09:25;22.70;99.90
44647;DHT22;56315;-33.902;151.160;2022-09-21T03:11:52;22.70;99.90
44647;DHT22;56315;-33.902;151.160;2022-09-21T03:14:19;22.80;99.90
44647;DHT22;56315;-33.902;151.160;2022-09-21T03:16:47;22.70;99.90
44647;DHT22;56315;-33.902;151.160;2022-09-21T03:19:14;22.70;99.90
44647;DHT22;56315;-33.902;151.160;2022-09-21T03:21:41;22.60;99.90
44647;DHT22;56315;-33.902;151.160;2022-09-21T03:24:08;22.50;99.90
44647;DHT22;56315;-33.902;151.160;2022-09-21T03:26:35;22.30;99.90
44647;DHT22;56315;-33.902;151.160;2022-09-21T03:29:02;22.10;99.90
44647;DHT22;56315;-33.902;151.160;2022-09-21T03:31:29;21.90;99.90
44647;DHT22;56315;-33.902;151.160;2022-09-21T03:33:57;21.80;99.90
44647;DHT22;56315;-33.902;151.160;2022-09-21T03:36:24;21.80;99.90
44647;DHT22;56315;-33.902;151.160;2022-09-21T03:38:50;21.70;99.90
44647;DHT22;56315;-33.902;151.160;2022-09-21T03:41:17;21.60;99.90
44647;DHT22;56315;-33.902;151.160;2022-09-21T03:43:44;21.50;99.90
44647;DHT22;56315;-33.902;151.160;2022-09-21T03:46:11;21.50;99.90
44647;DHT22;56315;-33.902;151.160;2022-09-21T03:48:38;21.60;99.90
44647;DHT22;56315;-33.902;151.160;2022-09-21T03:51:07;21.50;99.90
44647;DHT22;56315;-33.902;151.160;2022-09-21T03:53:33;21.30;99.90
44647;DHT22;56315;-33.902;151.160;2022-09-21T03:56:00;21.20;99.90
44647;DHT22;56315;-33.902;151.160;2022-09-21T03:58:27;21.10;99.90
44647;DHT22;56315;-33.902;151.160;2022-09-21T04:00:59;21.10;99.90
44647;DHT22;56315;-33.902;151.160;2022-09-21T04:03:27;21.00;99.90
44647;DHT22;56315;-33.902;151.160;2022-09-21T04:05:54;21.00;99.90
44647;DHT22;56315;-33.902;151.160;2022-09-21T04:08:21;20.80;99.90
44647;DHT22;56315;-33.902;151.160;2022-09-21T04:10:48;20.80;99.90
44647;DHT22;56315;-33.902;151.160;2022-09-21T04:13:14;20.80;99.90
44647;DHT22;56315;-33.902;151.160;2022-09-21T04:15:41;20.80;99.90
44647;DHT22;56315;-33.902;151.160;2022-09-21T04:18:08;20.80;99.90
44647;DHT22;56315;-33.902;151.160;2022-09-21T04:20:35;20.80;99.90
44647;DHT22;56315;-33.902;151.160;2022-09-21T04:23:01;20.90;99.90
44647;DHT22;56315;-33.902;151.160;2022-09-21T04:25:28;20.80;99.90
44647;DHT22;56315;-33.902;151.160;2022-09-21T04:27:55;20.80;99.90
44647;DHT22;56315;-33.902;151.160;2022-09-21T04:30:22;20.80;99.90
44647;DHT22;56315;-33.902;151.160;2022-09-21T04:32:48;20.80;99.90
44647;DHT22;56315;-33.902;151.160;2022-09-21T04:35:15;20.80;99.90
44647;DHT22;56315;-33.902;151.160;2022-09-21T04:37:42;20.70;99.90
44647;DHT22;56315;-33.902;151.160;2022-09-21T04:40:09;20.60;99.90
44647;DHT22;56315;-33.902;151.160;2022-09-21T04:42:35;20.60;99.90
44647;DHT22;56315;-33.902;151.160;2022-09-21T04:45:03;20.50;99.90
44647;DHT22;56315;-33.902;151.160;2022-09-21T04:47:29;20.50;99.90
44647;DHT22;56315;-33.902;151.160;2022-09-21T04:49:56;20.50;99.90
44647;DHT22;56315;-33.902;151.160;2022-09-21T04:52:23;20.50;99.90
44647;DHT22;56315;-33.902;151.160;2022-09-21T04:54:50;20.40;99.90
44647;DHT22;56315;-33.902;151.160;2022-09-21T04:57:16;20.40;99.90
44647;DHT22;56315;-33.902;151.160;2022-09-21T04:59:43;20.40;99.90
44647;DHT22;56315;-33.902;151.160;2022-09-21T05:02:10;20.30;99.90
44647;DHT22;56315;-33.902;151.160;2022-09-21T05:04:39;20.30;99.90
44647;DHT22;56315;-33.902;151.160;2022-09-21T05:07:06;20.30;99.90
44647;DHT22;56315;-33.902;151.160;2022-09-21T05:09:33;20.30;99.90
44647;DHT22;56315;-33.902;151.160;2022-09-21T05:12:17;20.30;99.90
44647;DHT22;56315;-33.902;151.160;2022-09-21T05:14:44;20.10;99.90
44647;DHT22;56315;-33.902;151.160;2022-09-21T05:17:11;20.10;99.90
44647;DHT22;56315;-33.902;151.160;2022-09-21T05:19:38;20.00;99.90
44647;DHT22;56315;-33.902;151.160;2022-09-21T05:22:05;19.90;99.90
44647;DHT22;56315;-33.902;151.160;2022-09-21T05:24:31;19.90;99.90
44647;DHT22;56315;-33.902;151.160;2022-09-21T05:26:58;19.90;99.90
44647;DHT22;56315;-33.902;151.160;2022-09-21T05:29:26;19.80;99.90
44647;DHT22;56315;-33.902;151.160;2022-09-21T05:31:58;19.80;99.90
44647;DHT22;56315;-33.902;151.160;2022-09-21T05:34:30;19.80;99.90
44647;DHT22;56315;-33.902;151.160;2022-09-21T05:39:43;19.70;99.90
44647;DHT22;56315;-33.902;151.160;2022-09-21T05:42:10;19.70;99.90
44647;DHT22;56315;-33.902;151.160;2022-09-21T05:44:37;19.70;99.90
44647;DHT22;56315;-33.902;151.160;2022-09-21T05:58:27;19.60;99.90
44647;DHT22;56315;-33.902;151.160;2022-09-21T06:03:40;19.60;99.90
44647;DHT22;56315;-33.902;151.160;2022-09-21T06:06:07;19.60;99.90
44647;DHT22;56315;-33.902;151.160;2022-09-21T06:08:34;19.60;99.90
44647;DHT22;56315;-33.902;151.160;2022-09-21T06:11:01;19.60;99.90
44647;DHT22;56315;-33.902;151.160;2022-09-21T06:13:28;19.60;99.90
44647;DHT22;56315;-33.902;151.160;2022-09-21T06:15:54;19.60;99.90
44647;DHT22;56315;-33.902;151.160;2022-09-21T06:18:21;19.60;99.90
44647;DHT22;56315;-33.902;151.160;2022-09-21T06:20:48;19.60;99.90
44647;DHT22;56315;-33.902;151.160;2022-09-21T06:23:15;19.60;99.90
44647;DHT22;56315;-33.902;151.160;2022-09-21T06:25:41;19.60;99.90
44647;DHT22;56315;-33.902;151.160;2022-09-21T06:28:09;19.50;99.90
44647;DHT22;56315;-33.902;151.160;2022-09-21T06:30:37;19.50;99.90
44647;DHT22;56315;-33.902;151.160;2022-09-21T06:33:07;19.50;99.90
44647;DHT22;56315;-33.902;151.160;2022-09-21T06:35:34;19.50;99.90
44647;DHT22;56315;-33.902;151.160;2022-09-21T06:38:02;19.50;99.90
44647;DHT22;56315;-33.902;151.160;2022-09-21T06:40:29;19.50;99.90
44647;DHT22;56315;-33.902;151.160;2022-09-21T06:42:59;19.40;99.90
44647;DHT22;56315;-33.902;151.160;2022-09-21T06:45:27;19.50;99.90
44647;DHT22;56315;-33.902;151.160;2022-09-21T06:47:54;19.50;99.90
44647;DHT22;56315;-33.902;151.160;2022-09-21T06:50:21;19.40;99.90
44647;DHT22;56315;-33.902;151.160;2022-09-21T06:52:48;19.50;99.90
44647;DHT22;56315;-33.902;151.160;2022-09-21T06:55:14;19.50;99.90
44647;DHT22;56315;-33.902;151.160;2022-09-21T06:57:41;19.50;99.90
44647;DHT22;56315;-33.902;151.160;2022-09-21T07:00:09;19.40;99.90
44647;DHT22;56315;-33.902;151.160;2022-09-21T07:02:36;19.40;99.90
44647;DHT22;56315;-33.902;151.160;2022-09-21T07:05:03;19.40;99.90
44647;DHT22;56315;-33.902;151.160;2022-09-21T07:07:30;19.40;99.90
44647;DHT22;56315;-33.902;151.160;2022-09-21T07:09:57;19.40;99.90
44647;DHT22;56315;-33.902;151.160;2022-09-21T07:12:28;19.40;99.90
44647;DHT22;56315;-33.902;151.160;2022-09-21T07:14:59;19.40;99.90
44647;DHT22;56315;-33.902;151.160;2022-09-21T07:17:36;19.30;99.90
44647;DHT22;56315;-33.902;151.160;2022-09-21T07:20:03;19.30;99.90
44647;DHT22;56315;-33.902;151.160;2022-09-21T07:22:32;19.30;99.90
44647;DHT22;56315;-33.902;151.160;2022-09-21T07:24:58;19.30;99.90
44647;DHT22;56315;-33.902;151.160;2022-09-21T07:27:27;19.30;99.90
44647;DHT22;56315;-33.902;151.160;2022-09-21T07:29:54;19.30;99.90
44647;DHT22;56315;-33.902;151.160;2022-09-21T07:32:21;19.30;99.90
44647;DHT22;56315;-33.902;151.160;2022-09-21T07:34:47;19.30;99.90
44647;DHT22;56315;-33.902;151.160;2022-09-21T07:37:14;19.30;99.90
44647;DHT22;56315;-33.902;151.160;2022-09-21T07:39:41;19.30;99.90
44647;DHT22;56315;-33.902;151.160;2022-09-21T07:42:07;19.20;99.90
44647;DHT22;56315;-33.902;151.160;2022-09-21T07:44:34;19.30;99.90
44647;DHT22;56315;-33.902;151.160;2022-09-21T07:47:01;19.20;99.90
44647;DHT22;56315;-33.902;151.160;2022-09-21T07:49:28;19.20;99.90
44647;DHT22;56315;-33.902;151.160;2022-09-21T07:51:54;19.20;99.90
44647;DHT22;56315;-33.902;151.160;2022-09-21T07:54:22;19.20;99.90
44647;DHT22;56315;-33.902;151.160;2022-09-21T07:56:48;19.20;99.90
44647;DHT22;56315;-33.902;151.160;2022-09-21T07:59:33;19.20;99.90
44647;DHT22;56315;-33.902;151.160;2022-09-21T08:02:00;19.20;99.90
44647;DHT22;56315;-33.902;151.160;2022-09-21T08:04:26;19.20;99.90
44647;DHT22;56315;-33.902;151.160;2022-09-21T08:06:53;19.20;99.90
44647;DHT22;56315;-33.902;151.160;2022-09-21T08:09:20;19.20;99.90
44647;DHT22;56315;-33.902;151.160;2022-09-21T08:11:47;19.10;99.90
44647;DHT22;56315;-33.902;151.160;2022-09-21T08:14:14;19.20;99.90
44647;DHT22;56315;-33.902;151.160;2022-09-21T08:16:44;19.10;99.90
44647;DHT22;56315;-33.902;151.160;2022-09-21T08:19:14;19.10;99.90
44647;DHT22;56315;-33.902;151.160;2022-09-21T08:21:42;19.10;99.90
44647;DHT22;56315;-33.902;151.160;2022-09-21T08:24:09;19.10;99.90
44647;DHT22;56315;-33.902;151.160;2022-09-21T08:26:35;19.10;99.90
44647;DHT22;56315;-33.902;151.160;2022-09-21T08:29:02;19.10;99.90
44647;DHT22;56315;-33.902;151.160;2022-09-21T08:31:29;19.10;99.90
44647;DHT22;56315;-33.902;151.160;2022-09-21T08:33:56;19.10;99.90
44647;DHT22;56315;-33.902;151.160;2022-09-21T08:36:23;19.10;99.90
44647;DHT22;56315;-33.902;151.160;2022-09-21T08:38:50;19.10;99.90
44647;DHT22;56315;-33.902;151.160;2022-09-21T08:41:22;19.10;99.90
44647;DHT22;56315;-33.902;151.160;2022-09-21T08:43:53;19.10;99.90
44647;DHT22;56315;-33.902;151.160;2022-09-21T08:46:27;19.10;99.90
44647;DHT22;56315;-33.902;151.160;2022-09-21T08:48:57;19.10;99.90
44647;DHT22;56315;-33.902;151.160;2022-09-21T08:51:26;19.10;99.90
44647;DHT22;56315;-33.902;151.160;2022-09-21T08:53:56;19.10;99.90
44647;DHT22;56315;-33.902;151.160;2022-09-21T08:56:24;19.00;99.90
44647;DHT22;56315;-33.902;151.160;2022-09-21T08:58:52;19.00;99.90
44647;DHT22;56315;-33.902;151.160;2022-09-21T09:04:52;19.00;99.90
44647;DHT22;56315;-33.902;151.160;2022-09-21T09:06:51;19.10;99.90
44647;DHT22;56315;-33.902;151.160;2022-09-21T09:12:08;19.00;99.90
44647;DHT22;56315;-33.902;151.160;2022-09-21T09:17:09;18.90;99.90
44647;DHT22;56315;-33.902;151.160;2022-09-21T09:19:42;18.90;99.90
44647;DHT22;56315;-33.902;151.160;2022-09-21T09:22:11;18.90;99.90
44647;DHT22;56315;-33.902;151.160;2022-09-21T09:24:48;18.90;99.90
44647;DHT22;56315;-33.902;151.160;2022-09-21T09:27:26;18.90;99.90
44647;DHT22;56315;-33.902;151.160;2022-09-21T09:30:04;18.90;99.90
44647;DHT22;56315;-33.902;151.160;2022-09-21T09:32:44;18.90;99.90
44647;DHT22;56315;-33.902;151.160;2022-09-21T09:37:46;18.90;99.90
44647;DHT22;56315;-33.902;151.160;2022-09-21T09:40:13;18.90;99.90
44647;DHT22;56315;-33.902;151.160;2022-09-21T09:52:45;18.90;99.90
44647;DHT22;56315;-33.902;151.160;2022-09-21T09:55:33;18.90;99.90
44647;DHT22;56315;-33.902;151.160;2022-09-21T09:58:00;18.90;99.90
44647;DHT22;56315;-33.902;151.160;2022-09-21T10:00:27;18.80;99.90
44647;DHT22;56315;-33.902;151.160;2022-09-21T10:02:55;18.80;99.90
44647;DHT22;56315;-33.902;151.160;2022-09-21T10:05:32;18.90;99.90
44647;DHT22;56315;-33.902;151.160;2022-09-21T10:07:59;18.80;99.90
44647;DHT22;56315;-33.902;151.160;2022-09-21T10:10:34;18.80;99.90
44647;DHT22;56315;-33.902;151.160;2022-09-21T10:13:11;18.90;99.90
44647;DHT22;56315;-33.902;151.160;2022-09-21T10:15:47;18.90;99.90
44647;DHT22;56315;-33.902;151.160;2022-09-21T10:21:02;18.80;99.90
44647;DHT22;56315;-33.902;151.160;2022-09-21T10:23:30;18.90;99.90
44647;DHT22;56315;-33.902;151.160;2022-09-21T10:25:59;18.80;99.90
44647;DHT22;56315;-33.902;151.160;2022-09-21T10:28:26;18.80;99.90
44647;DHT22;56315;-33.902;151.160;2022-09-21T10:31:38;18.80;99.90
44647;DHT22;56315;-33.902;151.160;2022-09-21T10:33:47;18.80;99.90
44647;DHT22;56315;-33.902;151.160;2022-09-21T10:36:25;18.80;99.90
44647;DHT22;56315;-33.902;151.160;2022-09-21T10:38:53;18.80;99.90
44647;DHT22;56315;-33.902;151.160;2022-09-21T10:41:19;18.80;99.90
44647;DHT22;56315;-33.902;151.160;2022-09-21T10:43:46;18.80;99.90
44647;DHT22;56315;-33.902;151.160;2022-09-21T10:46:15;18.80;99.90
44647;DHT22;56315;-33.902;151.160;2022-09-21T10:48:45;18.80;99.90
44647;DHT22;56315;-33.902;151.160;2022-09-21T10:51:25;18.70;99.90
44647;DHT22;56315;-33.902;151.160;2022-09-21T10:53:54;18.70;99.90
44647;DHT22;56315;-33.902;151.160;2022-09-21T10:56:20;18.70;99.90
44647;DHT22;56315;-33.902;151.160;2022-09-21T10:59:09;18.70;99.90
44647;DHT22;56315;-33.902;151.160;2022-09-21T11:01:34;18.80;99.90
44647;DHT22;56315;-33.902;151.160;2022-09-21T11:09:08;18.70;99.90
44647;DHT22;56315;-33.902;151.160;2022-09-21T11:11:38;18.70;99.90
44647;DHT22;56315;-33.902;151.160;2022-09-21T11:16:52;18.70;99.90
44647;DHT22;56315;-33.902;151.160;2022-09-21T11:34:34;18.70;99.90
44647;DHT22;56315;-33.902;151.160;2022-09-21T11:37:17;18.70;99.90
44647;DHT22;56315;-33.902;151.160;2022-09-21T11:44:53;18.70;99.90
44647;DHT22;56315;-33.902;151.160;2022-09-21T11:49:56;18.70;99.90
44647;DHT22;56315;-33.902;151.160;2022-09-21T11:57:37;18.60;99.90
44647;DHT22;56315;-33.902;151.160;2022-09-21T12:00:11;18.60;99.90
44647;DHT22;56315;-33.902;151.160;2022-09-21T12:02:50;18.60;99.90
44647;DHT22;56315;-33.902;151.160;2022-09-21T12:15:53;18.60;99.90
44647;DHT22;56315;-33.902;151.160;2022-09-21T12:23:56;18.50;99.90
44647;DHT22;56315;-33.902;151.160;2022-09-21T12:26:33;18.50;99.90
44647;DHT22;56315;-33.902;151.160;2022-09-21T12:29:04;18.50;99.90
44647;DHT22;56315;-33.902;151.160;2022-09-21T12:36:35;18.40;99.90
44647;DHT22;56315;-33.902;151.160;2022-09-21T12:39:27;18.40;99.90
44647;DHT22;56315;-33.902;151.160;2022-09-21T12:44:38;18.40;99.90
44647;DHT22;56315;-33.902;151.160;2022-09-21T12:49:55;18.30;99.90
44647;DHT22;56315;-33.902;151.160;2022-09-21T12:52:24;18.30;99.90
44647;DHT22;56315;-33.902;151.160;2022-09-21T12:57:32;18.20;99.90
44647;DHT22;56315;-33.902;151.160;2022-09-21T13:00:03;18.20;99.90
44647;DHT22;56315;-33.902;151.160;2022-09-21T13:02:41;18.20;99.90
44647;DHT22;56315;-33.902;151.160;2022-09-21T13:05:29;18.10;99.90
44647;DHT22;56315;-33.902;151.160;2022-09-21T13:08:02;18.10;99.90
44647;DHT22;56315;-33.902;151.160;2022-09-21T13:10:41;18.00;99.90
44647;DHT22;56315;-33.902;151.160;2022-09-21T13:13:25;18.00;99.90
44647;DHT22;56315;-33.902;151.160;2022-09-21T13:15:53;17.90;99.90
44647;DHT22;56315;-33.902;151.160;2022-09-21T13:18:24;17.90;99.90
44647;DHT22;56315;-33.902;151.160;2022-09-21T13:20:53;17.90;99.90
44647;DHT22;56315;-33.902;151.160;2022-09-21T13:26:13;17.90;99.90
44647;DHT22;56315;-33.902;151.160;2022-09-21T13:36:34;17.70;99.90
44647;DHT22;56315;-33.902;151.160;2022-09-21T13:39:11;17.70;99.90
44647;DHT22;56315;-33.902;151.160;2022-09-21T13:41:39;17.70;99.90
44647;DHT22;56315;-33.902;151.160;2022-09-21T13:44:19;17.70;99.90
44647;DHT22;56315;-33.902;151.160;2022-09-21T13:46:47;17.70;99.90
44647;DHT22;56315;-33.902;151.160;2022-09-21T13:49:17;17.60;99.90
44647;DHT22;56315;-33.902;151.160;2022-09-21T13:51:54;17.60;99.90
44647;DHT22;56315;-33.902;151.160;2022-09-21T13:54:23;17.60;99.90
44647;DHT22;56315;-33.902;151.160;2022-09-21T13:57:14;17.60;99.90
44647;DHT22;56315;-33.902;151.160;2022-09-21T13:59:42;17.60;99.90
44647;DHT22;56315;-33.902;151.160;2022-09-21T14:05:01;17.50;99.90
44647;DHT22;56315;-33.902;151.160;2022-09-21T14:07:29;17.40;99.90
44647;DHT22;56315;-33.902;151.160;2022-09-21T14:09:57;17.30;99.90
44647;DHT22;56315;-33.902;151.160;2022-09-21T14:12:25;17.30;99.90
44647;DHT22;56315;-33.902;151.160;2022-09-21T14:18:34;17.30;99.90
44647;DHT22;56315;-33.902;151.160;2022-09-21T14:20:32;17.30;99.90
44647;DHT22;56315;-33.902;151.160;2022-09-21T14:28:21;17.50;99.90
44647;DHT22;56315;-33.902;151.160;2022-09-21T14:30:55;17.50;99.90
44647;DHT22;56315;-33.902;151.160;2022-09-21T14:33:25;17.50;99.90
44647;DHT22;56315;-33.902;151.160;2022-09-21T14:35:53;17.60;99.90
44647;DHT22;56315;-33.902;151.160;2022-09-21T14:38:30;17.60;99.90
44647;DHT22;56315;-33.902;151.160;2022-09-21T14:41:04;17.60;99.90
44647;DHT22;56315;-33.902;151.160;2022-09-21T14:43:35;17.50;99.90
44647;DHT22;56315;-33.902;151.160;2022-09-21T14:46:07;17.60;99.90
44647;DHT22;56315;-33.902;151.160;2022-09-21T15:02:20;17.60;99.90
44647;DHT22;56315;-33.902;151.160;2022-09-21T15:10:22;17.50;99.90
44647;DHT22;56315;-33.902;151.160;2022-09-21T15:13:30;17.50;99.90
44647;DHT22;56315;-33.902;151.160;2022-09-21T15:18:44;17.50;99.90
44647;DHT22;56315;-33.902;151.160;2022-09-21T15:21:27;17.50;99.90
44647;DHT22;56315;-33.902;151.160;2022-09-21T15:23:54;17.50;99.90
44647;DHT22;56315;-33.902;151.160;2022-09-21T15:26:22;17.50;99.90
44647;DHT22;56315;-33.902;151.160;2022-09-21T15:28:55;17.50;99.90
44647;DHT22;56315;-33.902;151.160;2022-09-21T15:31:22;17.50;99.90
44647;DHT22;56315;-33.902;151.160;2022-09-21T15:33:50;17.50;99.90
44647;DHT22;56315;-33.902;151.160;2022-09-21T15:36:21;17.50;99.90
44647;DHT22;56315;-33.902;151.160;2022-09-21T15:38:49;17.50;99.90
44647;DHT22;56315;-33.902;151.160;2022-09-21T15:41:35;17.50;99.90
44647;DHT22;56315;-33.902;151.160;2022-09-21T15:44:14;17.50;99.90
44647;DHT22;56315;-33.902;151.160;2022-09-21T15:46:43;17.50;99.90
44647;DHT22;56315;-33.902;151.160;2022-09-21T15:49:15;17.50;99.90
44647;DHT22;56315;-33.902;151.160;2022-09-21T15:51:51;17.50;99.90
44647;DHT22;56315;-33.902;151.160;2022-09-21T15:56:55;17.60;99.90
44647;DHT22;56315;-33.902;151.160;2022-09-21T15:59:22;17.50;99.90
44647;DHT22;56315;-33.902;151.160;2022-09-21T16:01:51;17.60;99.90
44647;DHT22;56315;-33.902;151.160;2022-09-21T16:04:19;17.60;99.90
44647;DHT22;56315;-33.902;151.160;2022-09-21T16:06:56;17.50;99.90
44647;DHT22;56315;-33.902;151.160;2022-09-21T16:11:53;17.60;99.90
44647;DHT22;56315;-33.902;151.160;2022-09-21T16:14:20;17.50;99.90
44647;DHT22;56315;-33.902;151.160;2022-09-21T16:19:39;17.40;99.90
44647;DHT22;56315;-33.902;151.160;2022-09-21T16:22:10;17.30;99.90
44647;DHT22;56315;-33.902;151.160;2022-09-21T16:24:48;17.40;99.90
44647;DHT22;56315;-33.902;151.160;2022-09-21T16:27:16;17.30;99.90
44647;DHT22;56315;-33.902;151.160;2022-09-21T16:29:44;17.30;99.90
44647;DHT22;56315;-33.902;151.160;2022-09-21T16:34:47;17.30;99.90
44647;DHT22;56315;-33.902;151.160;2022-09-21T16:37:22;17.20;99.90
44647;DHT22;56315;-33.902;151.160;2022-09-21T16:42:17;17.20;99.90
44647;DHT22;56315;-33.902;151.160;2022-09-21T16:44:45;17.20;99.90
44647;DHT22;56315;-33.902;151.160;2022-09-21T16:47:13;17.20;99.90
44647;DHT22;56315;-33.902;151.160;2022-09-21T16:49:42;17.20;99.90
44647;DHT22;56315;-33.902;151.160;2022-09-21T16:52:09;17.10;99.90
44647;DHT22;56315;-33.902;151.160;2022-09-21T16:54:36;17.00;99.90
44647;DHT22;56315;-33.902;151.160;2022-09-21T16:57:03;17.00;99.90
44647;DHT22;56315;-33.902;151.160;2022-09-21T16:59:31;16.90;99.90
44647;DHT22;56315;-33.902;151.160;2022-09-21T17:01:59;16.70;99.90
44647;DHT22;56315;-33.902;151.160;2022-09-21T17:04:29;16.60;99.90
44647;DHT22;56315;-33.902;151.160;2022-09-21T17:06:56;16.50;99.90
44647;DHT22;56315;-33.902;151.160;2022-09-21T17:11:50;16.30;99.90
44647;DHT22;56315;-33.902;151.160;2022-09-21T17:14:17;16.30;99.90
44647;DHT22;56315;-33.902;151.160;2022-09-21T17:16:46;16.30;99.90
44647;DHT22;56315;-33.902;151.160;2022-09-21T17:19:13;16.30;99.90
44647;DHT22;56315;-33.902;151.160;2022-09-21T17:21:40;16.30;99.90
44647;DHT22;56315;-33.902;151.160;2022-09-21T17:24:07;16.30;99.90
44647;DHT22;56315;-33.902;151.160;2022-09-21T17:26:33;16.40;99.90
44647;DHT22;56315;-33.902;151.160;2022-09-21T17:29:00;16.40;99.90
44647;DHT22;56315;-33.902;151.160;2022-09-21T17:31:30;16.40;99.90
44647;DHT22;56315;-33.902;151.160;2022-09-21T17:33:57;16.40;99.90
44647;DHT22;56315;-33.902;151.160;2022-09-21T17:36:24;16.50;99.90
44647;DHT22;56315;-33.902;151.160;2022-09-21T17:38:51;16.50;99.90
44647;DHT22;56315;-33.902;151.160;2022-09-21T17:41:25;16.60;99.90
44647;DHT22;56315;-33.902;151.160;2022-09-21T17:43:57;16.60;99.90
44647;DHT22;56315;-33.902;151.160;2022-09-21T17:46:39;16.70;99.90
44647;DHT22;56315;-33.902;151.160;2022-09-21T17:49:09;16.80;99.90
44647;DHT22;56315;-33.902;151.160;2022-09-21T17:51:36;16.80;99.90
44647;DHT22;56315;-33.902;151.160;2022-09-21T17:54:21;16.80;99.90
44647;DHT22;56315;-33.902;151.160;2022-09-21T17:56:53;16.80;99.90
44647;DHT22;56315;-33.902;151.160;2022-09-21T18:01:51;16.90;99.90
44647;DHT22;56315;-33.902;151.160;2022-09-21T18:04:18;16.80;99.90
44647;DHT22;56315;-33.902;151.160;2022-09-21T18:06:45;16.90;99.90
44647;DHT22;56315;-33.902;151.160;2022-09-21T18:09:12;16.90;99.90
44647;DHT22;56315;-33.902;151.160;2022-09-21T18:11:50;16.90;99.90
44647;DHT22;56315;-33.902;151.160;2022-09-21T18:22:23;16.80;99.90
44647;DHT22;56315;-33.902;151.160;2022-09-21T18:24:44;16.80;99.90
44647;DHT22;56315;-33.902;151.160;2022-09-21T18:27:11;16.80;99.90
44647;DHT22;56315;-33.902;151.160;2022-09-21T18:29:38;16.80;99.90
44647;DHT22;56315;-33.902;151.160;2022-09-21T18:44:57;16.60;99.90